Time;durP1;ratioP1;P1;durP2;ratioP2;P2;SDS_P1;SDS_P2;PMS_P1;PMS_P2;Temp;Humidity;BMP_temperature;BMP_pressure;BME280_temperature;BME280_humidity;BME280_pressure;Samples;Min_cycle;Max_cycle;Signal;HPM_P1;HPM_P2
2022/08/30 00:01:02;;;;;;;1.10;0.70;;;21.50;55.60;;;;;;6071478;23;20581;-85
2022/08/30 00:03:29;;;;;;;1.02;0.80;;;21.50;55.70;;;;;;6095726;23;20141;-85
2022/08/30 00:05:55;;;;;;;0.90;0.75;;;21.50;55.50;;;;;;6095956;23;20205;-85
2022/08/30 00:08:20;;;;;;;0.70;0.70;;;21.60;55.60;;;;;;6095529;23;20140;-86
2022/08/30 00:10:50;;;;;;;1.35;0.70;;;21.50;55.60;;;;;;6096883;23;20573;-85
2022/08/30 00:13:17;;;;;;;2.25;0.80;;;21.50;55.60;;;;;;6049207;23;20473;-85
2022/08/30 00:15:44;;;;;;;0.73;0.70;;;21.60;55.70;;;;;;6048330;23;20472;-85
2022/08/30 00:18:11;;;;;;;1.52;0.70;;;21.50;55.70;;;;;;6072242;23;20163;-85
2022/08/30 00:20:37;;;;;;;1.10;0.68;;;21.50;55.60;;;;;;6025041;23;20153;-85
2022/08/30 00:23:03;;;;;;;2.15;0.65;;;21.50;55.70;;;;;;6073589;23;20257;-85
2022/08/30 00:25:28;;;;;;;2.03;0.85;;;21.50;55.80;;;;;;6049370;23;20153;-85
2022/08/30 00:27:54;;;;;;;1.05;0.80;;;21.50;55.70;;;;;;6049345;23;20231;-85
2022/08/30 00:30:20;;;;;;;2.20;0.90;;;21.50;55.80;;;;;;6073250;23;20137;-85
2022/08/30 00:32:46;;;;;;;1.48;0.90;;;21.50;55.80;;;;;;6049133;23;20267;-85
2022/08/30 00:35:13;;;;;;;1.55;0.88;;;21.50;55.70;;;;;;6073140;23;20129;-86
2022/08/30 00:37:39;;;;;;;1.85;0.65;;;21.50;55.80;;;;;;6073291;23;20187;-85
2022/08/30 00:40:05;;;;;;;1.95;0.80;;;21.50;55.80;;;;;;6049218;23;20240;-85
2022/08/30 00:42:32;;;;;;;0.80;0.63;;;21.50;55.80;;;;;;6073286;23;20141;-85
2022/08/30 00:44:58;;;;;;;2.15;0.82;;;21.50;55.80;;;;;;6049082;23;20201;-85
2022/08/30 00:47:23;;;;;;;1.13;0.70;;;21.50;55.80;;;;;;6072754;23;20203;-85
2022/08/30 00:49:51;;;;;;;1.63;0.80;;;21.50;55.80;;;;;;6073533;23;20416;-85
2022/08/30 00:52:16;;;;;;;0.75;0.75;;;21.50;55.80;;;;;;6072799;23;20176;-85
2022/08/30 00:54:44;;;;;;;0.77;0.77;;;21.50;55.80;;;;;;6073037;23;20156;-86
2022/08/30 00:57:10;;;;;;;0.55;0.55;;;21.50;55.80;;;;;;6073149;23;20460;-85
2022/08/30 00:59:37;;;;;;;2.05;0.88;;;21.50;55.80;;;;;;6096838;23;20141;-85
2022/08/30 01:02:02;;;;;;;0.90;0.77;;;21.50;55.90;;;;;;6072888;23;20193;-85
2022/08/30 01:04:28;;;;;;;1.27;0.80;;;21.50;55.80;;;;;;6072811;23;20148;-85
2022/08/30 01:06:54;;;;;;;1.58;0.77;;;21.40;55.80;;;;;;6096757;23;20196;-85
2022/08/30 01:09:20;;;;;;;1.42;0.65;;;21.50;55.90;;;;;;6072920;23;20136;-85
2022/08/30 01:11:45;;;;;;;1.02;0.80;;;21.50;55.90;;;;;;6096634;23;20679;-85
2022/08/30 01:14:11;;;;;;;2.33;0.77;;;21.50;55.90;;;;;;6049017;23;20151;-87
2022/08/30 01:16:38;;;;;;;0.70;0.70;;;21.50;55.80;;;;;;6096722;23;20461;-85
2022/08/30 01:19:05;;;;;;;1.05;0.77;;;21.50;55.80;;;;;;6043004;23;20176;-84
2022/08/30 01:21:45;;;;;;;1.10;0.82;;;21.50;55.90;;;;;;6019726;23;20505;-85
2022/08/30 01:24:10;;;;;;;1.60;0.70;;;21.50;55.90;;;;;;6020149;23;20593;-84
2022/08/30 01:26:36;;;;;;;0.82;0.70;;;21.50;55.90;;;;;;6019244;23;20241;-84
2022/08/30 01:29:05;;;;;;;0.85;0.65;;;21.50;55.90;;;;;;6019343;23;20180;-85
2022/08/30 01:31:35;;;;;;;1.70;0.73;;;21.50;56.00;;;;;;6018914;23;20629;-85
2022/08/30 01:34:04;;;;;;;1.48;0.63;;;21.50;55.90;;;;;;6020810;23;20409;-85
2022/08/30 01:36:30;;;;;;;1.65;0.80;;;21.50;56.00;;;;;;6019948;23;20174;-84
2022/08/30 01:38:56;;;;;;;1.75;0.73;;;21.40;56.00;;;;;;6066653;23;20221;-84
2022/08/30 01:41:24;;;;;;;0.60;0.60;;;21.50;56.00;;;;;;6019218;23;20177;-85
2022/08/30 01:43:50;;;;;;;0.70;0.70;;;21.50;56.00;;;;;;5996268;23;20284;-85
2022/08/30 01:46:17;;;;;;;0.65;0.65;;;21.50;56.00;;;;;;6019235;23;20168;-85
2022/08/30 01:48:43;;;;;;;1.20;0.77;;;21.50;56.00;;;;;;6019252;23;20152;-86
2022/08/30 01:51:10;;;;;;;0.93;0.60;;;21.50;56.00;;;;;;6070808;23;20156;-85
2022/08/30 01:53:36;;;;;;;1.63;0.70;;;21.50;56.00;;;;;;6048750;23;20152;-85
2022/08/30 01:56:01;;;;;;;1.15;0.75;;;21.50;56.00;;;;;;6072351;23;20141;-85
2022/08/30 01:58:27;;;;;;;0.90;0.80;;;21.50;56.00;;;;;;6072063;23;20200;-85
2022/08/30 02:00:53;;;;;;;1.50;0.70;;;21.50;56.10;;;;;;6072242;23;20465;-86
2022/08/30 02:03:18;;;;;;;1.08;0.90;;;21.50;56.10;;;;;;6072103;23;20176;-85
2022/08/30 02:05:44;;;;;;;1.08;0.82;;;21.50;56.10;;;;;;6072166;23;20144;-85
2022/08/30 02:08:14;;;;;;;0.60;0.60;;;21.50;56.10;;;;;;6048583;23;20149;-85
2022/08/30 02:10:42;;;;;;;0.70;0.70;;;21.40;56.10;;;;;;6023795;23;20184;-85
2022/08/30 02:13:09;;;;;;;2.05;1.05;;;21.50;56.20;;;;;;6047392;23;20216;-85
2022/08/30 02:15:36;;;;;;;1.58;0.90;;;21.50;56.20;;;;;;6047675;23;20252;-85
2022/08/30 02:18:03;;;;;;;0.90;0.60;;;21.50;56.00;;;;;;6047049;23;20168;-85
2022/08/30 02:20:30;;;;;;;1.17;0.85;;;21.50;56.20;;;;;;6047218;23;20203;-85
2022/08/30 02:22:57;;;;;;;1.67;0.80;;;21.50;56.20;;;;;;6046815;23;20193;-85
2022/08/30 02:25:22;;;;;;;0.70;0.70;;;21.50;56.20;;;;;;6070893;23;20750;-85
2022/08/30 02:27:48;;;;;;;0.90;0.80;;;21.50;56.20;;;;;;6047989;23;20235;-85
2022/08/30 02:30:14;;;;;;;1.05;0.60;;;21.50;56.20;;;;;;6097443;23;20129;-85
2022/08/30 02:32:40;;;;;;;0.70;0.70;;;21.40;56.10;;;;;;6095485;23;20165;-85
2022/08/30 02:35:06;;;;;;;1.38;0.90;;;21.40;56.20;;;;;;6072450;23;20203;-85
2022/08/30 02:37:33;;;;;;;0.63;0.63;;;21.50;56.20;;;;;;6095911;23;20137;-85
2022/08/30 02:40:00;;;;;;;1.00;0.75;;;21.50;56.20;;;;;;6047027;23;20184;-85
2022/08/30 02:42:27;;;;;;;0.65;0.57;;;21.50;56.20;;;;;;6023668;23;20525;-85
2022/08/30 02:44:53;;;;;;;0.77;0.65;;;21.50;56.20;;;;;;6046865;23;20159;-85
2022/08/30 02:47:20;;;;;;;0.60;0.60;;;21.50;56.20;;;;;;6072274;23;20156;-86
2022/08/30 02:49:47;;;;;;;0.93;0.70;;;21.40;56.20;;;;;;6047131;23;20159;-86
2022/08/30 02:52:15;;;;;;;2.75;0.70;;;21.50;56.30;;;;;;6047087;23;20278;-85
2022/08/30 02:54:43;;;;;;;1.23;0.70;;;21.40;56.20;;;;;;6047500;23;20163;-85
2022/08/30 02:57:08;;;;;;;0.80;0.80;;;21.50;56.20;;;;;;6070699;23;20207;-85
2022/08/30 02:59:40;;;;;;;1.25;0.70;;;21.50;56.20;;;;;;6048842;23;20157;-85
2022/08/30 03:02:07;;;;;;;0.60;0.60;;;21.50;56.20;;;;;;6048972;23;20207;-85
2022/08/30 03:04:33;;;;;;;2.28;0.80;;;21.50;56.20;;;;;;6023880;23;20153;-85
2022/08/30 03:06:59;;;;;;;1.58;0.60;;;21.50;56.20;;;;;;6048007;23;20155;-85
2022/08/30 03:09:24;;;;;;;0.85;0.80;;;21.50;56.20;;;;;;6095787;23;20137;-85
2022/08/30 03:11:50;;;;;;;0.90;0.80;;;21.50;56.20;;;;;;6095894;23;20223;-85
2022/08/30 03:14:16;;;;;;;1.33;0.80;;;21.50;56.20;;;;;;6072169;23;20566;-86
2022/08/30 03:16:42;;;;;;;0.70;0.70;;;21.50;56.20;;;;;;6096000;23;20589;-85
2022/08/30 03:19:08;;;;;;;1.02;0.80;;;21.50;56.20;;;;;;6097514;23;20465;-85
2022/08/30 03:21:35;;;;;;;1.20;0.60;;;21.50;56.20;;;;;;6023415;23;20163;-86
2022/08/30 03:24:01;;;;;;;0.68;0.68;;;21.50;56.20;;;;;;6048397;23;20232;-85
2022/08/30 03:26:27;;;;;;;0.55;0.55;;;21.50;56.30;;;;;;6071721;23;20185;-85
2022/08/30 03:28:53;;;;;;;0.98;0.70;;;21.50;56.30;;;;;;6095766;23;20129;-85
2022/08/30 03:31:18;;;;;;;0.80;0.70;;;21.50;56.30;;;;;;6095517;23;20171;-85
2022/08/30 03:33:44;;;;;;;1.13;0.70;;;21.50;56.30;;;;;;6095550;23;20636;-85
2022/08/30 03:36:10;;;;;;;0.70;0.70;;;21.50;56.30;;;;;;6095601;23;20149;-85
2022/08/30 03:38:37;;;;;;;1.80;0.60;;;21.50;56.30;;;;;;6071887;23;20572;-85
2022/08/30 03:41:03;;;;;;;1.60;0.80;;;21.50;56.30;;;;;;6071864;23;20200;-85
2022/08/30 03:43:29;;;;;;;2.08;0.82;;;21.50;56.30;;;;;;6071839;23;20653;-84
2022/08/30 03:45:55;;;;;;;0.90;0.70;;;21.50;56.20;;;;;;6099450;23;20161;-85
2022/08/30 03:48:21;;;;;;;0.60;0.60;;;21.50;56.30;;;;;;6097561;23;20528;-85
2022/08/30 03:50:47;;;;;;;0.80;0.70;;;21.50;56.30;;;;;;6074035;23;20140;-85
2022/08/30 03:53:13;;;;;;;0.98;0.88;;;21.50;56.30;;;;;;6097743;23;20252;-86
2022/08/30 03:55:39;;;;;;;0.70;0.70;;;21.50;56.40;;;;;;6098288;23;20234;-85
2022/08/30 03:58:04;;;;;;;0.63;0.63;;;21.50;56.40;;;;;;6097233;23;20196;-85
2022/08/30 04:00:30;;;;;;;0.88;0.70;;;21.40;56.30;;;;;;6049513;23;20636;-85
2022/08/30 04:02:56;;;;;;;1.10;0.70;;;21.50;56.40;;;;;;6097332;23;20613;-85
2022/08/30 04:05:21;;;;;;;1.60;0.75;;;21.40;56.30;;;;;;6097671;23;20133;-85
2022/08/30 04:07:47;;;;;;;1.05;0.82;;;21.50;57.10;;;;;;6097289;23;20184;-85
2022/08/30 04:10:13;;;;;;;0.93;0.70;;;21.50;56.40;;;;;;6073668;23;20189;-85
2022/08/30 04:12:39;;;;;;;1.30;0.80;;;21.40;56.40;;;;;;6073648;23;20177;-85
2022/08/30 04:15:08;;;;;;;0.65;0.65;;;21.40;56.40;;;;;;6097244;23;20136;-85
2022/08/30 04:17:35;;;;;;;1.52;0.70;;;21.50;56.50;;;;;;6049520;23;20239;-85
2022/08/30 04:20:03;;;;;;;0.60;0.60;;;21.40;56.40;;;;;;6048796;23;20160;-85
2022/08/30 04:22:28;;;;;;;0.65;0.65;;;21.40;57.10;;;;;;6048437;23;20533;-85
2022/08/30 04:24:54;;;;;;;0.60;0.60;;;21.40;56.50;;;;;;6073279;23;20140;-86
2022/08/30 04:27:20;;;;;;;1.27;0.80;;;21.40;56.50;;;;;;6049753;23;20180;-85
2022/08/30 04:29:47;;;;;;;1.20;0.80;;;21.40;56.50;;;;;;6097528;23;20510;-85
2022/08/30 04:32:15;;;;;;;0.80;0.60;;;21.40;56.50;;;;;;6048261;23;20195;-86
2022/08/30 04:34:45;;;;;;;0.65;0.60;;;21.40;56.50;;;;;;6048874;23;20257;-85
2022/08/30 04:37:13;;;;;;;0.80;0.70;;;21.40;56.40;;;;;;6072226;23;20156;-85
2022/08/30 04:39:39;;;;;;;1.27;0.80;;;21.50;56.50;;;;;;6048585;23;20167;-86
2022/08/30 04:42:05;;;;;;;0.70;0.70;;;21.50;56.50;;;;;;6073510;23;20133;-86
2022/08/30 04:44:31;;;;;;;0.70;0.70;;;21.50;56.30;;;;;;6073182;23;20177;-85
2022/08/30 04:46:57;;;;;;;0.70;0.60;;;21.40;56.20;;;;;;6073440;23;20137;-85
2022/08/30 04:49:23;;;;;;;0.60;0.60;;;21.40;56.30;;;;;;6049385;23;20582;-85
2022/08/30 04:51:49;;;;;;;3.10;0.63;;;21.50;56.40;;;;;;6048889;23;20254;-85
2022/08/30 04:54:15;;;;;;;0.70;0.70;;;21.40;56.40;;;;;;6098325;23;20144;-86
2022/08/30 04:56:43;;;;;;;0.60;0.60;;;21.50;56.40;;;;;;6096683;23;20565;-85
2022/08/30 04:59:12;;;;;;;0.80;0.75;;;21.40;56.40;;;;;;6096596;23;20271;-86
2022/08/30 05:01:37;;;;;;;0.82;0.73;;;21.40;56.50;;;;;;6049854;23;20224;-86
2022/08/30 05:04:03;;;;;;;1.15;0.80;;;21.40;56.50;;;;;;6072794;23;20541;-85
2022/08/30 05:06:30;;;;;;;0.85;0.73;;;21.40;56.50;;;;;;6096901;23;20133;-85
2022/08/30 05:08:59;;;;;;;1.20;0.77;;;21.40;56.50;;;;;;6049126;23;20156;-86
2022/08/30 05:11:25;;;;;;;0.60;0.60;;;21.30;56.50;;;;;;6025442;23;20196;-86
2022/08/30 05:13:52;;;;;;;1.17;0.60;;;21.30;56.50;;;;;;6073006;23;20184;-85
2022/08/30 05:16:20;;;;;;;0.52;0.50;;;21.40;56.50;;;;;;6047847;23;20212;-85
2022/08/30 05:18:49;;;;;;;0.68;0.68;;;21.40;56.50;;;;;;6048217;23;20243;-85
2022/08/30 05:21:19;;;;;;;0.55;0.55;;;21.40;56.50;;;;;;6048122;23;20593;-86
2022/08/30 05:23:46;;;;;;;0.70;0.70;;;21.40;56.50;;;;;;6047952;23;20161;-86
2022/08/30 05:26:14;;;;;;;0.57;0.57;;;21.40;56.50;;;;;;6047837;23;20583;-87
2022/08/30 05:28:40;;;;;;;0.50;0.50;;;21.30;56.40;;;;;;6072881;23;20200;-85
2022/08/30 05:31:18;;;;;;;0.70;0.55;;;21.40;56.50;;;;;;6072427;23;20591;-85
2022/08/30 05:33:44;;;;;;;0.55;0.55;;;21.40;56.40;;;;;;6096926;23;20145;-86
2022/08/30 05:36:10;;;;;;;0.60;0.60;;;21.40;56.50;;;;;;6097996;23;20137;-86
2022/08/30 05:38:36;;;;;;;0.60;0.60;;;21.40;56.40;;;;;;6072863;23;20167;-85
2022/08/30 05:41:02;;;;;;;0.68;0.68;;;21.50;56.50;;;;;;6072606;23;20473;-85
2022/08/30 05:43:27;;;;;;;0.40;0.40;;;21.40;56.40;;;;;;6048896;23;20232;-85
2022/08/30 05:46:01;;;;;;;0.70;0.60;;;21.40;56.40;;;;;;6048724;23;20565;-85
2022/08/30 05:48:28;;;;;;;0.45;0.45;;;21.50;56.40;;;;;;6073245;23;20216;-85
2022/08/30 05:51:07;;;;;;;0.73;0.73;;;21.50;56.40;;;;;;6071740;23;20616;-85
2022/08/30 05:53:34;;;;;;;0.60;0.60;;;21.50;56.30;;;;;;6049514;23;20190;-85
2022/08/30 05:56:02;;;;;;;0.60;0.60;;;21.50;56.40;;;;;;6096768;23;20137;-85
2022/08/30 05:58:28;;;;;;;0.50;0.40;;;21.50;56.30;;;;;;6097557;23;20198;-85
2022/08/30 06:00:54;;;;;;;0.50;0.50;;;21.50;56.30;;;;;;6048285;23;20586;-85
2022/08/30 06:03:20;;;;;;;0.60;0.60;;;21.50;56.20;;;;;;6048439;23;20156;-85
2022/08/30 06:05:46;;;;;;;1.25;0.60;;;21.50;56.30;;;;;;6072579;23;20530;-85
2022/08/30 06:08:12;;;;;;;0.82;0.70;;;21.50;56.40;;;;;;6097655;23;20140;-85
2022/08/30 06:10:37;;;;;;;0.65;0.60;;;21.50;56.30;;;;;;6096803;23;20149;-85
2022/08/30 06:13:03;;;;;;;0.60;0.60;;;21.50;56.40;;;;;;6096435;23;20172;-85
2022/08/30 06:15:29;;;;;;;0.70;0.70;;;21.60;56.20;;;;;;6072377;23;20137;-84
2022/08/30 06:17:55;;;;;;;0.60;0.60;;;21.60;56.20;;;;;;6096360;23;20197;-85
2022/08/30 06:20:21;;;;;;;0.60;0.60;;;21.60;56.20;;;;;;6072132;23;20144;-85
2022/08/30 06:22:46;;;;;;;0.50;0.50;;;21.60;56.20;;;;;;6048961;23;20636;-85
2022/08/30 06:25:13;;;;;;;0.60;0.60;;;21.60;56.20;;;;;;6096368;23;20141;-85
2022/08/30 06:27:39;;;;;;;0.70;0.60;;;21.60;56.30;;;;;;6096392;23;20129;-84
2022/08/30 06:30:07;;;;;;;0.70;0.70;;;21.60;56.20;;;;;;6096004;23;20143;-85
2022/08/30 06:32:33;;;;;;;0.68;0.52;;;21.60;56.40;;;;;;6097287;23;20173;-85
2022/08/30 06:34:59;;;;;;;1.75;0.60;;;21.60;56.40;;;;;;6097684;23;20144;-85
2022/08/30 06:37:26;;;;;;;0.63;0.60;;;21.60;56.40;;;;;;6071661;23;20145;-85
2022/08/30 06:39:52;;;;;;;0.73;0.50;;;21.60;56.40;;;;;;6072516;23;20150;-85
2022/08/30 06:42:18;;;;;;;0.60;0.60;;;21.60;56.40;;;;;;6095742;23;20140;-86
2022/08/30 06:44:44;;;;;;;0.68;0.68;;;21.60;56.40;;;;;;6095889;23;20156;-86
2022/08/30 06:47:10;;;;;;;0.80;0.80;;;21.60;56.60;;;;;;6072029;23;20198;-86
2022/08/30 06:49:36;;;;;;;0.60;0.60;;;21.60;56.90;;;;;;6071818;23;20566;-86
2022/08/30 06:52:02;;;;;;;0.50;0.50;;;21.70;56.70;;;;;;6047923;23;20231;-86
2022/08/30 06:54:28;;;;;;;0.85;0.70;;;21.70;56.80;;;;;;6071866;23;20137;-86
2022/08/30 06:56:53;;;;;;;1.13;0.50;;;21.60;56.70;;;;;;6097140;23;20184;-86
2022/08/30 06:59:19;;;;;;;2.70;0.70;;;21.60;56.90;;;;;;6071345;23;20200;-86
2022/08/30 07:01:46;;;;;;;0.50;0.50;;;21.60;57.10;;;;;;6071923;23;20220;-86
2022/08/30 07:04:12;;;;;;;1.50;0.70;;;21.60;57.00;;;;;;6095868;23;20144;-86
2022/08/30 07:06:38;;;;;;;0.60;0.60;;;21.60;57.30;;;;;;6095833;23;20572;-86
2022/08/30 07:09:04;;;;;;;1.38;0.63;;;21.60;57.00;;;;;;6097290;23;20242;-87
2022/08/30 07:11:37;;;;;;;0.88;0.60;;;21.70;57.00;;;;;;6097148;23;20251;-86
2022/08/30 07:14:03;;;;;;;0.57;0.52;;;21.60;57.00;;;;;;6047674;23;20189;-87
2022/08/30 07:16:32;;;;;;;0.70;0.70;;;21.60;57.70;;;;;;6096073;23;20533;-86
2022/08/30 07:18:59;;;;;;;0.80;0.80;;;21.60;57.10;;;;;;6095484;23;20132;-86
2022/08/30 07:21:27;;;;;;;0.95;0.60;;;21.60;57.10;;;;;;6072576;23;20569;-86
2022/08/30 07:23:55;;;;;;;0.60;0.55;;;21.60;57.40;;;;;;6095782;23;20188;-86
2022/08/30 07:26:25;;;;;;;0.70;0.70;;;21.60;57.30;;;;;;6095835;23;20149;-87
2022/08/30 07:28:51;;;;;;;0.80;0.80;;;21.60;57.40;;;;;;6096117;23;20165;-86
2022/08/30 07:31:17;;;;;;;0.93;0.68;;;21.70;57.40;;;;;;6047889;23;20145;-86
2022/08/30 07:33:42;;;;;;;0.60;0.60;;;21.60;57.50;;;;;;6048360;23;20149;-86
2022/08/30 07:36:08;;;;;;;1.05;0.85;;;21.70;57.50;;;;;;6048435;23;20616;-87
2022/08/30 07:38:34;;;;;;;0.60;0.60;;;21.70;57.30;;;;;;6071657;23;20484;-87
2022/08/30 07:41:00;;;;;;;0.77;0.77;;;21.60;57.30;;;;;;6047859;23;20148;-86
2022/08/30 07:43:27;;;;;;;0.70;0.70;;;21.50;57.40;;;;;;6097204;23;20473;-87
2022/08/30 07:45:53;;;;;;;0.63;0.63;;;21.50;57.50;;;;;;6047791;23;20145;-87
2022/08/30 07:48:19;;;;;;;0.80;0.80;;;21.60;57.60;;;;;;6071585;23;20162;-87
2022/08/30 07:50:45;;;;;;;0.75;0.75;;;21.50;57.50;;;;;;6097153;23;20136;-87
2022/08/30 07:53:13;;;;;;;1.05;0.65;;;21.50;57.60;;;;;;6095671;23;20169;-86
2022/08/30 07:55:39;;;;;;;0.50;0.50;;;21.50;57.60;;;;;;6072561;23;20130;-87
2022/08/30 07:58:05;;;;;;;0.63;0.63;;;21.50;57.70;;;;;;6096737;23;20644;-86
2022/08/30 08:00:31;;;;;;;0.60;0.60;;;21.50;57.70;;;;;;6071927;23;20153;-86
2022/08/30 08:02:56;;;;;;;1.15;0.80;;;21.50;57.80;;;;;;6071584;23;20466;-86
2022/08/30 08:05:22;;;;;;;1.23;0.75;;;21.60;57.60;;;;;;6095619;23;20134;-86
2022/08/30 08:07:48;;;;;;;1.13;0.73;;;21.60;57.60;;;;;;6072033;23;20157;-86
2022/08/30 08:10:14;;;;;;;0.90;0.77;;;21.60;57.60;;;;;;6071618;23;20161;-86
2022/08/30 08:12:40;;;;;;;2.45;0.60;;;21.60;57.60;;;;;;6095495;23;20172;-86
2022/08/30 08:15:06;;;;;;;2.83;0.60;;;21.60;57.70;;;;;;6047896;23;20153;-86
2022/08/30 08:17:32;;;;;;;0.90;0.77;;;21.50;57.70;;;;;;6071903;23;20137;-86
2022/08/30 08:19:58;;;;;;;0.80;0.70;;;21.60;57.70;;;;;;6095740;23;20141;-86
2022/08/30 08:22:24;;;;;;;0.70;0.68;;;21.60;57.60;;;;;;6095557;23;20141;-86
2022/08/30 08:24:52;;;;;;;0.50;0.50;;;21.60;57.80;;;;;;6095400;23;20171;-86
2022/08/30 08:27:20;;;;;;;1.45;0.75;;;21.50;57.80;;;;;;6046968;23;20156;-86
2022/08/30 08:29:46;;;;;;;0.60;0.60;;;21.60;57.80;;;;;;6046671;23;20236;-86
2022/08/30 08:32:15;;;;;;;1.35;0.60;;;21.60;57.60;;;;;;6096608;23;20265;-86
2022/08/30 08:34:40;;;;;;;0.77;0.70;;;21.60;57.60;;;;;;6073244;23;20133;-86
2022/08/30 08:37:06;;;;;;;0.80;0.80;;;21.60;57.70;;;;;;6097126;23;20133;-86
2022/08/30 08:39:32;;;;;;;3.80;0.70;;;21.60;57.70;;;;;;6073201;23;20140;-86
2022/08/30 08:42:05;;;;;;;0.65;0.65;;;21.60;57.80;;;;;;6098477;23;20141;-86
2022/08/30 08:44:42;;;;;;;0.60;0.60;;;21.50;58.00;;;;;;6073768;23;20143;-86
2022/08/30 08:47:15;;;;;;;0.63;0.60;;;21.60;57.90;;;;;;6073209;23;20156;-86
2022/08/30 08:49:42;;;;;;;0.77;0.70;;;21.60;57.90;;;;;;6074243;23;20160;-86
2022/08/30 08:54:57;;;;;;;0.68;0.68;;;21.60;58.00;;;;;;6076805;23;20224;-86
2022/08/30 08:57:23;;;;;;;1.75;0.60;;;21.60;58.00;;;;;;6073099;23;20129;-85
2022/08/30 08:59:52;;;;;;;0.70;0.70;;;21.60;58.10;;;;;;6072971;23;20313;-86
2022/08/30 09:02:27;;;;;;;0.70;0.70;;;21.60;58.00;;;;;;6073739;23;20149;-86
2022/08/30 09:04:57;;;;;;;1.50;0.73;;;21.70;57.90;;;;;;6050631;23;20145;-86
2022/08/30 09:07:25;;;;;;;0.95;0.57;;;21.70;57.90;;;;;;6049432;23;20152;-86
2022/08/30 09:09:51;;;;;;;0.73;0.70;;;21.70;57.90;;;;;;6049139;23;20203;-86
2022/08/30 09:12:17;;;;;;;0.77;0.63;;;21.70;58.00;;;;;;6096818;23;20598;-86
2022/08/30 09:14:46;;;;;;;0.50;0.50;;;21.70;58.00;;;;;;6072889;23;20261;-86
2022/08/30 09:17:16;;;;;;;1.05;0.70;;;21.60;57.90;;;;;;6048609;23;20156;-87
2022/08/30 09:19:57;;;;;;;0.98;0.60;;;21.60;58.70;;;;;;6048314;23;20180;-86
2022/08/30 09:22:38;;;;;;;0.50;0.50;;;21.60;57.90;;;;;;6096573;23;20480;-86
2022/08/30 09:25:17;;;;;;;0.60;0.60;;;21.60;57.90;;;;;;6096650;23;20458;-86
2022/08/30 09:27:46;;;;;;;0.75;0.75;;;21.60;58.00;;;;;;6073621;23;20160;-86
2022/08/30 09:30:30;;;;;;;0.70;0.70;;;21.60;58.00;;;;;;6048522;23;20192;-86
2022/08/30 09:32:59;;;;;;;0.77;0.70;;;21.50;58.00;;;;;;6048324;23;20580;-86
2022/08/30 09:35:33;;;;;;;0.77;0.70;;;21.60;58.00;;;;;;6048214;23;20243;-86
2022/08/30 09:38:10;;;;;;;0.60;0.60;;;21.60;58.10;;;;;;6097116;23;20143;-85
2022/08/30 09:40:44;;;;;;;0.68;0.68;;;21.60;58.20;;;;;;6024359;23;20156;-86
2022/08/30 09:43:26;;;;;;;1.10;0.70;;;21.60;58.00;;;;;;6050219;23;20166;-86
2022/08/30 09:46:09;;;;;;;0.60;0.60;;;21.60;58.00;;;;;;6027060;23;20153;-86
2022/08/30 09:48:39;;;;;;;0.70;0.70;;;21.60;57.90;;;;;;6096383;23;20172;-86
2022/08/30 09:51:33;;;;;;;0.68;0.65;;;21.60;58.20;;;;;;6096783;23;20132;-86
2022/08/30 09:54:09;;;;;;;0.73;0.70;;;21.70;57.80;;;;;;6072874;23;20186;-85
2022/08/30 09:57:00;;;;;;;0.60;0.60;;;21.60;57.70;;;;;;6049478;23;20157;-85
2022/08/30 09:59:40;;;;;;;0.60;0.60;;;21.70;57.50;;;;;;6028203;23;20196;-86
2022/08/30 10:02:27;;;;;;;0.60;0.60;;;21.70;57.50;;;;;;6025133;23;20156;-86
2022/08/30 10:05:20;;;;;;;0.88;0.70;;;21.70;57.50;;;;;;6075379;23;20155;-85
2022/08/30 10:08:01;;;;;;;0.70;0.60;;;21.60;57.70;;;;;;6073967;23;20497;-84
2022/08/30 10:10:45;;;;;;;0.68;0.68;;;21.60;58.90;;;;;;6097160;23;20198;-85
2022/08/30 10:13:47;;;;;;;1.83;0.60;;;21.60;58.20;;;;;;6049208;23;20192;-85
2022/08/30 10:16:37;;;;;;;1.60;0.68;;;21.60;58.70;;;;;;6072480;23;20171;-84
2022/08/30 10:19:28;;;;;;;0.68;0.68;;;21.60;59.60;;;;;;6074987;23;20148;-85
2022/08/30 10:22:07;;;;;;;0.85;0.85;;;21.60;60.30;;;;;;6077243;23;20642;-84
2022/08/30 10:24:41;;;;;;;2.40;0.65;;;21.60;59.80;;;;;;6074474;23;20171;-84
2022/08/30 10:27:28;;;;;;;4.38;0.93;;;21.70;59.60;;;;;;6050186;23;20157;-85
2022/08/30 10:30:10;;;;;;;0.80;0.80;;;21.70;59.50;;;;;;6075918;23;20129;-85
2022/08/30 10:32:51;;;;;;;3.10;0.95;;;21.60;59.50;;;;;;6072478;23;20605;-87
2022/08/30 10:35:22;;;;;;;1.58;0.90;;;21.50;60.20;;;;;;6072634;23;20149;-84
2022/08/30 10:37:51;;;;;;;1.27;0.90;;;21.60;59.60;;;;;;6096262;23;20168;-86
2022/08/30 10:43:27;;;;;;;1.02;1.00;;;21.50;60.10;;;;;;6059313;23;20157;-84
2022/08/30 10:45:55;;;;;;;1.10;1.05;;;21.60;60.40;;;;;;6096107;23;20144;-84
2022/08/30 10:48:27;;;;;;;0.95;0.93;;;21.60;60.70;;;;;;6072817;23;20175;-83
2022/08/30 10:50:54;;;;;;;1.08;0.90;;;21.60;60.80;;;;;;6047876;23;20153;-86
2022/08/30 10:53:31;;;;;;;1.95;0.98;;;21.60;60.60;;;;;;6048014;23;20256;-85
2022/08/30 10:56:04;;;;;;;1.13;0.95;;;21.50;60.60;;;;;;6095975;23;20133;-86
2022/08/30 10:58:30;;;;;;;1.90;1.30;;;21.60;61.00;;;;;;6024060;23;20537;-85
2022/08/30 11:01:06;;;;;;;1.90;1.00;;;21.60;60.50;;;;;;6071815;23;20141;-84
2022/08/30 11:03:58;;;;;;;1.90;1.00;;;21.60;60.50;;;;;;6049583;23;20532;-84
2022/08/30 11:06:47;;;;;;;1.08;0.90;;;21.70;60.40;;;;;;6053110;23;20223;-85
2022/08/30 11:09:29;;;;;;;1.17;1.08;;;21.60;60.00;;;;;;6055842;23;20153;-85
2022/08/30 11:12:20;;;;;;;0.90;0.80;;;21.70;59.80;;;;;;6048211;23;20282;-85
2022/08/30 11:14:48;;;;;;;3.25;0.90;;;21.60;59.80;;;;;;6050816;23;20153;-85
2022/08/30 11:17:31;;;;;;;1.23;0.88;;;21.60;59.80;;;;;;6023607;23;20179;-84
2022/08/30 11:20:00;;;;;;;1.92;0.80;;;21.60;59.90;;;;;;6047589;23;20215;-84
2022/08/30 11:22:30;;;;;;;0.95;0.95;;;21.50;59.80;;;;;;6046808;23;20152;-83
2022/08/30 11:25:06;;;;;;;1.27;0.90;;;21.60;60.00;;;;;;6024045;23;20188;-84
2022/08/30 11:27:48;;;;;;;2.60;0.93;;;21.60;59.80;;;;;;6050347;23;20204;-84
2022/08/30 11:30:48;;;;;;;1.30;0.90;;;21.60;60.50;;;;;;6049760;23;20152;-85
2022/08/30 11:33:29;;;;;;;1.92;0.88;;;21.60;59.40;;;;;;6051217;23;20217;-85
2022/08/30 11:35:57;;;;;;;0.90;0.90;;;21.70;59.40;;;;;;6096957;23;20188;-84
2022/08/30 11:39:03;;;;;;;0.80;0.68;;;21.70;59.30;;;;;;6070675;23;20472;-85
2022/08/30 11:41:35;;;;;;;0.85;0.85;;;21.70;59.20;;;;;;6080072;23;20557;-84
2022/08/30 11:44:27;;;;;;;1.70;1.23;;;21.60;59.10;;;;;;6049231;23;20508;-84
2022/08/30 11:46:58;;;;;;;1.23;1.13;;;21.70;59.20;;;;;;6097006;23;20607;-84
2022/08/30 11:49:45;;;;;;;1.50;0.80;;;21.70;59.10;;;;;;6023738;23;20364;-84
2022/08/30 11:52:28;;;;;;;1.10;0.85;;;21.70;59.10;;;;;;6052004;23;20271;-85
2022/08/30 11:55:18;;;;;;;1.27;0.82;;;21.60;59.00;;;;;;6095858;23;20148;-83
2022/08/30 11:58:05;;;;;;;2.08;1.00;;;21.60;59.10;;;;;;6095165;23;20200;-83
2022/08/30 12:00:38;;;;;;;1.30;0.93;;;21.60;59.10;;;;;;6095853;23;20160;-85
2022/08/30 12:03:05;;;;;;;1.02;0.93;;;21.60;59.00;;;;;;6048340;23;20628;-85
2022/08/30 12:05:55;;;;;;;1.10;1.00;;;21.50;58.90;;;;;;6072428;23;20144;-84
2022/08/30 12:08:40;;;;;;;2.55;1.00;;;21.50;58.90;;;;;;6078561;23;20141;-86
2022/08/30 12:11:27;;;;;;;2.92;0.80;;;21.50;59.00;;;;;;6098027;23;20167;-85
2022/08/30 12:13:54;;;;;;;2.15;1.00;;;21.50;59.00;;;;;;6097821;23;20148;-84
2022/08/30 12:18:26;;;;;;;0.85;0.80;;;21.50;59.20;;;;;;6073699;23;20601;-83
2022/08/30 12:19:26;;;;;;;1.20;1.10;;;21.50;59.20;;;;;;6080698;23;20292;-83
2022/08/30 12:21:59;;;;;;;1.17;1.00;;;21.60;59.20;;;;;;6073291;23;20180;-82
2022/08/30 12:24:39;;;;;;;1.35;0.90;;;21.60;59.20;;;;;;6074312;23;20142;-84
2022/08/30 12:27:23;;;;;;;1.10;1.00;;;21.60;59.10;;;;;;6098323;23;20217;-84
2022/08/30 12:29:52;;;;;;;1.23;0.90;;;21.60;59.10;;;;;;6100007;23;20577;-84
2022/08/30 12:32:21;;;;;;;1.05;0.73;;;21.60;59.30;;;;;;6027407;23;20279;-85
2022/08/30 12:35:00;;;;;;;1.45;0.85;;;21.60;59.20;;;;;;6099004;23;20593;-86
2022/08/30 12:37:32;;;;;;;1.25;0.88;;;21.60;59.10;;;;;;6074651;23;20620;-85
2022/08/30 12:40:17;;;;;;;1.27;0.85;;;21.60;59.00;;;;;;6098103;23;20233;-85
2022/08/30 12:42:53;;;;;;;1.30;0.80;;;21.60;59.00;;;;;;6072883;23;20148;-87
2022/08/30 12:45:25;;;;;;;1.00;0.90;;;21.50;59.00;;;;;;6072881;23;20141;-84
2022/08/30 12:47:55;;;;;;;1.20;1.00;;;21.50;58.90;;;;;;6096855;23;20509;-85
2022/08/30 12:50:25;;;;;;;1.67;0.90;;;21.50;58.70;;;;;;6072806;23;20145;-85
2022/08/30 12:52:58;;;;;;;1.13;1.02;;;21.60;58.80;;;;;;6050029;23;20553;-85
2022/08/30 12:55:28;;;;;;;1.10;1.00;;;21.50;58.70;;;;;;6049583;23;20474;-84
2022/08/30 12:58:06;;;;;;;1.10;1.00;;;21.50;58.70;;;;;;6072816;23;20497;-85
2022/08/30 13:00:35;;;;;;;1.00;0.90;;;21.40;58.80;;;;;;6051146;23;20156;-85
2022/08/30 13:03:18;;;;;;;1.00;0.90;;;21.50;58.90;;;;;;6049656;23;20153;-85
2022/08/30 13:05:45;;;;;;;1.20;1.08;;;21.50;58.80;;;;;;6052961;23;20156;-84
2022/08/30 13:08:18;;;;;;;1.55;1.08;;;21.40;58.90;;;;;;6073062;23;20137;-84